sensor_id;sensor_type;location;lat;lon;timestamp;P1;durP1;ratioP1;P2;durP2;ratioP2
43801;SDS011;29429;51.074;13.764;2023-11-21T00:00:16;6.35;;;1.42;;
43801;SDS011;29429;51.074;13.764;2023-11-21T00:02:43;3.95;;;1.35;;
43801;SDS011;29429;51.074;13.764;2023-11-21T00:05:12;2.42;;;1.42;;
43801;SDS011;29429;51.074;13.764;2023-11-21T00:07:40;4.55;;;1.13;;
43801;SDS011;29429;51.074;13.764;2023-11-21T00:10:09;2.22;;;1.27;;
43801;SDS011;29429;51.074;13.764;2023-11-21T00:12:37;2.58;;;1.10;;
43801;SDS011;29429;51.074;13.764;2023-11-21T00:15:04;2.85;;;1.20;;
43801;SDS011;29429;51.074;13.764;2023-11-21T00:17:32;1.60;;;1.00;;
43801;SDS011;29429;51.074;13.764;2023-11-21T00:19:59;3.63;;;1.25;;
43801;SDS011;29429;51.074;13.764;2023-11-21T00:22:26;2.72;;;1.00;;
43801;SDS011;29429;51.074;13.764;2023-11-21T00:24:53;3.47;;;1.23;;
43801;SDS011;29429;51.074;13.764;2023-11-21T00:27:20;4.65;;;1.17;;
43801;SDS011;29429;51.074;13.764;2023-11-21T00:29:46;2.42;;;1.05;;
43801;SDS011;29429;51.074;13.764;2023-11-21T00:32:13;1.58;;;0.95;;
43801;SDS011;29429;51.074;13.764;2023-11-21T00:34:40;2.13;;;0.95;;
43801;SDS011;29429;51.074;13.764;2023-11-21T00:37:09;2.15;;;1.00;;
43801;SDS011;29429;51.074;13.764;2023-11-21T00:39:35;2.33;;;0.90;;
43801;SDS011;29429;51.074;13.764;2023-11-21T00:42:02;2.40;;;1.35;;
43801;SDS011;29429;51.074;13.764;2023-11-21T00:44:31;3.75;;;1.20;;
43801;SDS011;29429;51.074;13.764;2023-11-21T00:46:58;2.97;;;1.20;;
43801;SDS011;29429;51.074;13.764;2023-11-21T00:49:25;1.30;;;0.90;;
43801;SDS011;29429;51.074;13.764;2023-11-21T00:51:52;1.67;;;0.88;;
43801;SDS011;29429;51.074;13.764;2023-11-21T00:54:19;1.73;;;0.90;;
43801;SDS011;29429;51.074;13.764;2023-11-21T00:56:46;2.95;;;1.10;;
43801;SDS011;29429;51.074;13.764;2023-11-21T00:59:15;4.38;;;1.50;;
43801;SDS011;29429;51.074;13.764;2023-11-21T01:01:42;2.08;;;0.90;;
43801;SDS011;29429;51.074;13.764;2023-11-21T01:04:09;4.35;;;1.50;;
43801;SDS011;29429;51.074;13.764;2023-11-21T01:06:37;2.17;;;1.17;;
43801;SDS011;29429;51.074;13.764;2023-11-21T01:09:05;4.45;;;1.90;;
43801;SDS011;29429;51.074;13.764;2023-11-21T01:11:35;1.90;;;1.27;;
43801;SDS011;29429;51.074;13.764;2023-11-21T01:14:06;2.92;;;1.20;;
43801;SDS011;29429;51.074;13.764;2023-11-21T01:16:35;2.10;;;1.25;;
43801;SDS011;29429;51.074;13.764;2023-11-21T01:19:02;4.30;;;1.55;;
43801;SDS011;29429;51.074;13.764;2023-11-21T01:21:31;2.75;;;1.20;;
43801;SDS011;29429;51.074;13.764;2023-11-21T01:23:58;2.75;;;1.30;;
43801;SDS011;29429;51.074;13.764;2023-11-21T01:26:25;2.63;;;1.25;;
43801;SDS011;29429;51.074;13.764;2023-11-21T01:28:52;3.22;;;1.27;;
43801;SDS011;29429;51.074;13.764;2023-11-21T01:31:19;2.25;;;1.20;;
43801;SDS011;29429;51.074;13.764;2023-11-21T01:33:47;2.13;;;1.23;;
43801;SDS011;29429;51.074;13.764;2023-11-21T01:36:14;2.63;;;1.10;;
43801;SDS011;29429;51.074;13.764;2023-11-21T01:38:43;2.67;;;0.95;;
43801;SDS011;29429;51.074;13.764;2023-11-21T01:41:10;6.15;;;1.45;;
43801;SDS011;29429;51.074;13.764;2023-11-21T01:43:39;3.10;;;1.52;;
43801;SDS011;29429;51.074;13.764;2023-11-21T01:46:08;6.13;;;1.88;;
43801;SDS011;29429;51.074;13.764;2023-11-21T01:48:36;4.20;;;1.42;;
43801;SDS011;29429;51.074;13.764;2023-11-21T01:51:04;4.75;;;1.35;;
43801;SDS011;29429;51.074;13.764;2023-11-21T01:53:32;2.67;;;1.40;;
43801;SDS011;29429;51.074;13.764;2023-11-21T01:55:59;4.43;;;1.45;;
43801;SDS011;29429;51.074;13.764;2023-11-21T01:58:26;2.67;;;1.23;;
43801;SDS011;29429;51.074;13.764;2023-11-21T02:00:53;2.08;;;0.88;;
43801;SDS011;29429;51.074;13.764;2023-11-21T02:03:21;2.88;;;1.20;;
43801;SDS011;29429;51.074;13.764;2023-11-21T02:05:48;1.55;;;1.02;;
43801;SDS011;29429;51.074;13.764;2023-11-21T02:08:15;3.30;;;1.20;;
43801;SDS011;29429;51.074;13.764;2023-11-21T02:10:42;2.30;;;1.10;;
43801;SDS011;29429;51.074;13.764;2023-11-21T02:13:10;2.35;;;1.20;;
43801;SDS011;29429;51.074;13.764;2023-11-21T02:15:37;6.15;;;1.50;;
43801;SDS011;29429;51.074;13.764;2023-11-21T02:18:04;3.70;;;1.40;;
43801;SDS011;29429;51.074;13.764;2023-11-21T02:20:32;6.82;;;1.80;;
43801;SDS011;29429;51.074;13.764;2023-11-21T02:23:02;3.85;;;1.30;;
43801;SDS011;29429;51.074;13.764;2023-11-21T02:25:30;2.90;;;1.50;;
43801;SDS011;29429;51.074;13.764;2023-11-21T02:28:00;4.22;;;1.25;;
43801;SDS011;29429;51.074;13.764;2023-11-21T02:30:29;4.43;;;1.52;;
43801;SDS011;29429;51.074;13.764;2023-11-21T02:33:00;5.00;;;1.58;;
43801;SDS011;29429;51.074;13.764;2023-11-21T02:35:30;4.45;;;1.83;;
43801;SDS011;29429;51.074;13.764;2023-11-21T02:37:58;7.45;;;1.88;;
43801;SDS011;29429;51.074;13.764;2023-11-21T02:40:25;2.38;;;1.30;;
43801;SDS011;29429;51.074;13.764;2023-11-21T02:42:53;4.03;;;1.50;;
43801;SDS011;29429;51.074;13.764;2023-11-21T02:45:21;4.78;;;1.60;;
43801;SDS011;29429;51.074;13.764;2023-11-21T02:47:49;3.03;;;1.50;;
43801;SDS011;29429;51.074;13.764;2023-11-21T02:50:17;5.20;;;1.70;;
43801;SDS011;29429;51.074;13.764;2023-11-21T02:52:45;3.67;;;1.23;;
43801;SDS011;29429;51.074;13.764;2023-11-21T02:55:13;4.65;;;1.60;;
43801;SDS011;29429;51.074;13.764;2023-11-21T02:57:40;6.93;;;1.20;;
43801;SDS011;29429;51.074;13.764;2023-11-21T03:00:08;4.00;;;1.10;;
43801;SDS011;29429;51.074;13.764;2023-11-21T03:02:39;3.38;;;1.58;;
43801;SDS011;29429;51.074;13.764;2023-11-21T03:05:07;4.43;;;1.25;;
43801;SDS011;29429;51.074;13.764;2023-11-21T03:07:38;2.88;;;1.50;;
43801;SDS011;29429;51.074;13.764;2023-11-21T03:10:07;3.15;;;1.27;;
43801;SDS011;29429;51.074;13.764;2023-11-21T03:12:36;6.45;;;2.05;;
43801;SDS011;29429;51.074;13.764;2023-11-21T03:15:06;6.13;;;1.50;;
43801;SDS011;29429;51.074;13.764;2023-11-21T03:17:35;4.78;;;1.80;;
43801;SDS011;29429;51.074;13.764;2023-11-21T03:20:04;8.95;;;1.70;;
43801;SDS011;29429;51.074;13.764;2023-11-21T03:22:32;4.72;;;1.50;;
43801;SDS011;29429;51.074;13.764;2023-11-21T03:25:00;3.30;;;1.45;;
43801;SDS011;29429;51.074;13.764;2023-11-21T03:27:27;4.70;;;1.30;;
43801;SDS011;29429;51.074;13.764;2023-11-21T03:29:54;2.90;;;1.15;;
43801;SDS011;29429;51.074;13.764;2023-11-21T03:32:21;5.55;;;1.75;;
43801;SDS011;29429;51.074;13.764;2023-11-21T03:34:56;3.33;;;1.55;;
43801;SDS011;29429;51.074;13.764;2023-11-21T03:37:25;3.00;;;1.38;;
43801;SDS011;29429;51.074;13.764;2023-11-21T03:39:57;4.47;;;2.05;;
43801;SDS011;29429;51.074;13.764;2023-11-21T03:42:24;3.03;;;1.50;;
43801;SDS011;29429;51.074;13.764;2023-11-21T03:44:53;2.90;;;1.30;;
43801;SDS011;29429;51.074;13.764;2023-11-21T03:47:20;3.42;;;1.92;;
43801;SDS011;29429;51.074;13.764;2023-11-21T03:49:47;3.72;;;1.58;;
43801;SDS011;29429;51.074;13.764;2023-11-21T03:52:15;5.55;;;1.70;;
43801;SDS011;29429;51.074;13.764;2023-11-21T03:54:42;4.53;;;1.92;;
43801;SDS011;29429;51.074;13.764;2023-11-21T03:57:10;3.78;;;1.58;;
43801;SDS011;29429;51.074;13.764;2023-11-21T03:59:41;2.70;;;1.55;;
43801;SDS011;29429;51.074;13.764;2023-11-21T04:02:09;3.55;;;1.70;;
43801;SDS011;29429;51.074;13.764;2023-11-21T04:04:36;6.13;;;2.28;;
43801;SDS011;29429;51.074;13.764;2023-11-21T04:07:03;4.75;;;1.80;;
43801;SDS011;29429;51.074;13.764;2023-11-21T04:09:31;5.45;;;1.60;;
43801;SDS011;29429;51.074;13.764;2023-11-21T04:11:58;3.38;;;1.67;;
43801;SDS011;29429;51.074;13.764;2023-11-21T04:14:25;4.57;;;1.70;;
43801;SDS011;29429;51.074;13.764;2023-11-21T04:16:52;4.10;;;1.90;;
43801;SDS011;29429;51.074;13.764;2023-11-21T04:19:20;4.05;;;1.60;;
43801;SDS011;29429;51.074;13.764;2023-11-21T04:21:47;2.65;;;1.60;;
43801;SDS011;29429;51.074;13.764;2023-11-21T04:24:14;4.13;;;1.70;;
43801;SDS011;29429;51.074;13.764;2023-11-21T04:26:42;5.30;;;1.40;;
43801;SDS011;29429;51.074;13.764;2023-11-21T04:29:10;6.35;;;2.05;;
43801;SDS011;29429;51.074;13.764;2023-11-21T04:31:37;6.20;;;1.85;;
43801;SDS011;29429;51.074;13.764;2023-11-21T04:34:04;4.75;;;1.70;;
43801;SDS011;29429;51.074;13.764;2023-11-21T04:36:31;3.88;;;1.83;;
43801;SDS011;29429;51.074;13.764;2023-11-21T04:38:58;3.88;;;1.88;;
43801;SDS011;29429;51.074;13.764;2023-11-21T04:41:25;6.20;;;1.83;;
43801;SDS011;29429;51.074;13.764;2023-11-21T04:43:52;4.75;;;1.98;;
43801;SDS011;29429;51.074;13.764;2023-11-21T04:46:19;2.72;;;1.40;;
43801;SDS011;29429;51.074;13.764;2023-11-21T04:48:46;4.82;;;1.80;;
43801;SDS011;29429;51.074;13.764;2023-11-21T04:51:13;4.18;;;1.65;;
43801;SDS011;29429;51.074;13.764;2023-11-21T04:53:40;4.20;;;1.63;;
43801;SDS011;29429;51.074;13.764;2023-11-21T04:56:07;3.47;;;1.98;;
43801;SDS011;29429;51.074;13.764;2023-11-21T04:58:34;3.63;;;1.85;;
43801;SDS011;29429;51.074;13.764;2023-11-21T05:01:02;4.03;;;1.63;;
43801;SDS011;29429;51.074;13.764;2023-11-21T05:03:33;10.80;;;2.72;;
43801;SDS011;29429;51.074;13.764;2023-11-21T05:06:01;3.88;;;1.67;;
43801;SDS011;29429;51.074;13.764;2023-11-21T05:08:29;5.68;;;2.05;;
43801;SDS011;29429;51.074;13.764;2023-11-21T05:10:56;4.88;;;2.33;;
43801;SDS011;29429;51.074;13.764;2023-11-21T05:13:23;5.07;;;2.60;;
43801;SDS011;29429;51.074;13.764;2023-11-21T05:15:54;6.82;;;2.20;;
43801;SDS011;29429;51.074;13.764;2023-11-21T05:18:23;4.60;;;1.90;;
43801;SDS011;29429;51.074;13.764;2023-11-21T05:20:53;2.97;;;1.80;;
43801;SDS011;29429;51.074;13.764;2023-11-21T05:23:20;3.65;;;2.08;;
43801;SDS011;29429;51.074;13.764;2023-11-21T05:25:47;5.85;;;2.45;;
43801;SDS011;29429;51.074;13.764;2023-11-21T05:28:14;5.78;;;2.33;;
43801;SDS011;29429;51.074;13.764;2023-11-21T05:30:41;4.90;;;2.05;;
43801;SDS011;29429;51.074;13.764;2023-11-21T05:33:08;7.63;;;2.72;;
43801;SDS011;29429;51.074;13.764;2023-11-21T05:35:35;6.57;;;2.67;;
43801;SDS011;29429;51.074;13.764;2023-11-21T05:38:02;7.10;;;3.15;;
43801;SDS011;29429;51.074;13.764;2023-11-21T05:40:29;7.93;;;3.03;;
43801;SDS011;29429;51.074;13.764;2023-11-21T05:42:56;7.80;;;2.40;;
43801;SDS011;29429;51.074;13.764;2023-11-21T05:45:23;5.78;;;2.50;;
43801;SDS011;29429;51.074;13.764;2023-11-21T05:47:50;3.35;;;1.88;;
43801;SDS011;29429;51.074;13.764;2023-11-21T05:50:17;4.93;;;2.45;;
43801;SDS011;29429;51.074;13.764;2023-11-21T05:52:45;5.47;;;2.13;;
43801;SDS011;29429;51.074;13.764;2023-11-21T05:55:13;6.63;;;2.20;;
43801;SDS011;29429;51.074;13.764;2023-11-21T05:57:41;3.50;;;1.85;;
43801;SDS011;29429;51.074;13.764;2023-11-21T06:00:11;4.13;;;2.08;;
43801;SDS011;29429;51.074;13.764;2023-11-21T06:02:48;6.70;;;2.63;;
43801;SDS011;29429;51.074;13.764;2023-11-21T06:05:21;4.32;;;2.20;;
43801;SDS011;29429;51.074;13.764;2023-11-21T06:07:51;6.05;;;2.30;;
43801;SDS011;29429;51.074;13.764;2023-11-21T06:10:20;6.75;;;2.25;;
43801;SDS011;29429;51.074;13.764;2023-11-21T06:12:50;6.07;;;2.15;;
43801;SDS011;29429;51.074;13.764;2023-11-21T06:15:18;5.80;;;2.85;;
43801;SDS011;29429;51.074;13.764;2023-11-21T06:17:47;8.77;;;3.05;;
43801;SDS011;29429;51.074;13.764;2023-11-21T06:20:19;12.52;;;6.15;;
43801;SDS011;29429;51.074;13.764;2023-11-21T06:22:46;10.57;;;5.85;;
43801;SDS011;29429;51.074;13.764;2023-11-21T06:25:16;10.15;;;4.18;;
43801;SDS011;29429;51.074;13.764;2023-11-21T06:27:44;11.85;;;4.05;;
43801;SDS011;29429;51.074;13.764;2023-11-21T06:30:16;8.98;;;3.45;;
43801;SDS011;29429;51.074;13.764;2023-11-21T06:32:46;9.85;;;3.72;;
43801;SDS011;29429;51.074;13.764;2023-11-21T06:35:14;10.65;;;3.85;;
43801;SDS011;29429;51.074;13.764;2023-11-21T06:37:43;9.35;;;3.85;;
43801;SDS011;29429;51.074;13.764;2023-11-21T06:40:16;10.73;;;4.03;;
43801;SDS011;29429;51.074;13.764;2023-11-21T06:42:48;7.90;;;3.33;;
43801;SDS011;29429;51.074;13.764;2023-11-21T06:45:16;5.70;;;3.53;;
43801;SDS011;29429;51.074;13.764;2023-11-21T06:47:47;9.00;;;3.13;;
43801;SDS011;29429;51.074;13.764;2023-11-21T06:50:14;7.85;;;3.42;;
43801;SDS011;29429;51.074;13.764;2023-11-21T06:52:42;9.25;;;4.00;;
43801;SDS011;29429;51.074;13.764;2023-11-21T06:55:09;11.27;;;4.35;;
43801;SDS011;29429;51.074;13.764;2023-11-21T06:57:37;11.98;;;4.70;;
43801;SDS011;29429;51.074;13.764;2023-11-21T07:00:04;13.55;;;5.25;;
43801;SDS011;29429;51.074;13.764;2023-11-21T07:02:35;11.55;;;4.53;;
43801;SDS011;29429;51.074;13.764;2023-11-21T07:05:02;9.85;;;4.15;;
43801;SDS011;29429;51.074;13.764;2023-11-21T07:07:29;10.98;;;4.25;;
43801;SDS011;29429;51.074;13.764;2023-11-21T07:09:56;12.20;;;5.07;;
43801;SDS011;29429;51.074;13.764;2023-11-21T07:12:23;10.70;;;4.63;;
43801;SDS011;29429;51.074;13.764;2023-11-21T07:14:52;9.52;;;4.65;;
43801;SDS011;29429;51.074;13.764;2023-11-21T07:17:19;13.18;;;6.28;;
43801;SDS011;29429;51.074;13.764;2023-11-21T07:19:48;16.23;;;4.95;;
43801;SDS011;29429;51.074;13.764;2023-11-21T07:22:16;10.65;;;4.72;;
43801;SDS011;29429;51.074;13.764;2023-11-21T07:24:48;13.50;;;5.30;;
43801;SDS011;29429;51.074;13.764;2023-11-21T07:27:18;15.32;;;5.18;;
43801;SDS011;29429;51.074;13.764;2023-11-21T07:29:46;12.27;;;5.18;;
43801;SDS011;29429;51.074;13.764;2023-11-21T07:32:14;9.57;;;4.82;;
43801;SDS011;29429;51.074;13.764;2023-11-21T07:34:42;13.18;;;5.55;;
43801;SDS011;29429;51.074;13.764;2023-11-21T07:37:09;13.90;;;6.15;;
43801;SDS011;29429;51.074;13.764;2023-11-21T07:39:36;11.68;;;5.60;;
43801;SDS011;29429;51.074;13.764;2023-11-21T07:42:03;9.52;;;4.63;;
43801;SDS011;29429;51.074;13.764;2023-11-21T07:44:30;9.38;;;4.35;;
43801;SDS011;29429;51.074;13.764;2023-11-21T07:46:57;9.27;;;4.82;;
43801;SDS011;29429;51.074;13.764;2023-11-21T07:49:24;14.15;;;6.35;;
43801;SDS011;29429;51.074;13.764;2023-11-21T07:51:52;11.30;;;5.20;;
43801;SDS011;29429;51.074;13.764;2023-11-21T07:54:20;10.63;;;5.03;;
43801;SDS011;29429;51.074;13.764;2023-11-21T07:56:47;13.75;;;5.72;;
43801;SDS011;29429;51.074;13.764;2023-11-21T07:59:14;9.50;;;4.53;;
43801;SDS011;29429;51.074;13.764;2023-11-21T08:01:41;12.68;;;5.32;;
43801;SDS011;29429;51.074;13.764;2023-11-21T08:04:09;12.02;;;4.93;;
43801;SDS011;29429;51.074;13.764;2023-11-21T08:06:36;10.77;;;5.18;;
43801;SDS011;29429;51.074;13.764;2023-11-21T08:09:03;14.13;;;5.40;;
43801;SDS011;29429;51.074;13.764;2023-11-21T08:11:30;16.02;;;5.88;;
43801;SDS011;29429;51.074;13.764;2023-11-21T08:13:59;13.10;;;5.30;;
43801;SDS011;29429;51.074;13.764;2023-11-21T08:16:26;14.55;;;6.35;;
43801;SDS011;29429;51.074;13.764;2023-11-21T08:18:54;10.75;;;5.80;;
43801;SDS011;29429;51.074;13.764;2023-11-21T08:21:21;14.65;;;6.30;;
43801;SDS011;29429;51.074;13.764;2023-11-21T08:23:51;14.68;;;6.63;;
43801;SDS011;29429;51.074;13.764;2023-11-21T08:26:21;17.83;;;7.78;;
43801;SDS011;29429;51.074;13.764;2023-11-21T08:28:48;14.55;;;6.55;;
43801;SDS011;29429;51.074;13.764;2023-11-21T08:31:16;18.30;;;8.13;;
43801;SDS011;29429;51.074;13.764;2023-11-21T08:33:43;26.15;;;8.48;;
43801;SDS011;29429;51.074;13.764;2023-11-21T08:36:10;14.70;;;7.22;;
43801;SDS011;29429;51.074;13.764;2023-11-21T08:38:38;19.63;;;8.30;;
43801;SDS011;29429;51.074;13.764;2023-11-21T08:41:06;21.23;;;8.68;;
43801;SDS011;29429;51.074;13.764;2023-11-21T08:43:34;20.10;;;8.18;;
43801;SDS011;29429;51.074;13.764;2023-11-21T08:46:06;19.98;;;8.25;;
43801;SDS011;29429;51.074;13.764;2023-11-21T08:48:35;25.80;;;9.43;;
43801;SDS011;29429;51.074;13.764;2023-11-21T08:51:03;23.23;;;9.10;;
43801;SDS011;29429;51.074;13.764;2023-11-21T08:53:31;20.08;;;9.05;;
43801;SDS011;29429;51.074;13.764;2023-11-21T08:55:59;20.92;;;8.80;;
43801;SDS011;29429;51.074;13.764;2023-11-21T08:58:26;21.35;;;9.50;;
43801;SDS011;29429;51.074;13.764;2023-11-21T09:00:53;24.42;;;9.68;;
43801;SDS011;29429;51.074;13.764;2023-11-21T09:03:20;21.85;;;9.88;;
43801;SDS011;29429;51.074;13.764;2023-11-21T09:05:48;15.95;;;8.55;;
43801;SDS011;29429;51.074;13.764;2023-11-21T09:08:14;19.90;;;7.93;;
43801;SDS011;29429;51.074;13.764;2023-11-21T09:10:41;17.45;;;9.10;;
43801;SDS011;29429;51.074;13.764;2023-11-21T09:13:09;12.27;;;7.85;;
43801;SDS011;29429;51.074;13.764;2023-11-21T09:15:36;17.75;;;8.23;;
43801;SDS011;29429;51.074;13.764;2023-11-21T09:18:03;16.63;;;9.30;;
43801;SDS011;29429;51.074;13.764;2023-11-21T09:20:31;21.05;;;8.60;;
43801;SDS011;29429;51.074;13.764;2023-11-21T09:22:58;17.90;;;9.68;;
43801;SDS011;29429;51.074;13.764;2023-11-21T09:25:25;18.10;;;9.25;;
43801;SDS011;29429;51.074;13.764;2023-11-21T09:27:52;15.13;;;8.80;;
43801;SDS011;29429;51.074;13.764;2023-11-21T09:30:19;18.92;;;9.43;;
43801;SDS011;29429;51.074;13.764;2023-11-21T09:32:46;18.13;;;9.00;;
43801;SDS011;29429;51.074;13.764;2023-11-21T09:35:13;17.13;;;9.05;;
43801;SDS011;29429;51.074;13.764;2023-11-21T09:37:41;17.10;;;9.23;;
43801;SDS011;29429;51.074;13.764;2023-11-21T09:40:11;14.27;;;7.70;;
43801;SDS011;29429;51.074;13.764;2023-11-21T09:42:43;12.57;;;5.88;;
43801;SDS011;29429;51.074;13.764;2023-11-21T09:48:05;5.55;;;3.25;;
43801;SDS011;29429;51.074;13.764;2023-11-21T09:50:33;5.07;;;3.15;;
43801;SDS011;29429;51.074;13.764;2023-11-21T09:53:12;4.65;;;2.75;;
43801;SDS011;29429;51.074;13.764;2023-11-21T09:55:48;4.22;;;3.25;;
43801;SDS011;29429;51.074;13.764;2023-11-21T09:58:18;8.32;;;3.50;;
43801;SDS011;29429;51.074;13.764;2023-11-21T10:00:52;5.55;;;4.53;;
43801;SDS011;29429;51.074;13.764;2023-11-21T10:03:22;6.90;;;4.82;;
43801;SDS011;29429;51.074;13.764;2023-11-21T10:05:50;7.75;;;5.88;;
43801;SDS011;29429;51.074;13.764;2023-11-21T10:08:20;10.63;;;7.90;;
43801;SDS011;29429;51.074;13.764;2023-11-21T10:10:51;12.98;;;8.52;;
43801;SDS011;29429;51.074;13.764;2023-11-21T10:13:20;13.35;;;8.52;;
43801;SDS011;29429;51.074;13.764;2023-11-21T10:15:51;13.60;;;8.63;;
43801;SDS011;29429;51.074;13.764;2023-11-21T10:18:19;11.98;;;7.55;;
43801;SDS011;29429;51.074;13.764;2023-11-21T10:20:49;10.75;;;6.93;;
43801;SDS011;29429;51.074;13.764;2023-11-21T10:23:20;9.57;;;6.43;;
43801;SDS011;29429;51.074;13.764;2023-11-21T10:25:50;9.10;;;6.07;;
43801;SDS011;29429;51.074;13.764;2023-11-21T10:28:19;8.23;;;5.70;;
43801;SDS011;29429;51.074;13.764;2023-11-21T10:30:47;8.68;;;5.82;;
43801;SDS011;29429;51.074;13.764;2023-11-21T10:33:14;9.05;;;5.57;;
43801;SDS011;29429;51.074;13.764;2023-11-21T10:38:08;10.40;;;6.38;;
43801;SDS011;29429;51.074;13.764;2023-11-21T10:40:43;11.02;;;7.05;;
43801;SDS011;29429;51.074;13.764;2023-11-21T10:43:11;12.77;;;6.97;;
43801;SDS011;29429;51.074;13.764;2023-11-21T10:45:39;11.93;;;7.47;;
43801;SDS011;29429;51.074;13.764;2023-11-21T10:48:14;13.70;;;7.40;;
43801;SDS011;29429;51.074;13.764;2023-11-21T10:50:43;13.32;;;7.85;;
43801;SDS011;29429;51.074;13.764;2023-11-21T10:53:13;12.73;;;7.75;;
43801;SDS011;29429;51.074;13.764;2023-11-21T10:55:41;11.88;;;7.78;;
43801;SDS011;29429;51.074;13.764;2023-11-21T10:58:11;12.38;;;7.03;;
43801;SDS011;29429;51.074;13.764;2023-11-21T11:00:41;10.55;;;5.82;;
43801;SDS011;29429;51.074;13.764;2023-11-21T11:03:11;8.07;;;5.13;;
43801;SDS011;29429;51.074;13.764;2023-11-21T11:05:46;8.43;;;5.20;;
43801;SDS011;29429;51.074;13.764;2023-11-21T11:08:19;10.25;;;4.78;;
43801;SDS011;29429;51.074;13.764;2023-11-21T11:10:53;7.53;;;4.60;;
43801;SDS011;29429;51.074;13.764;2023-11-21T11:13:22;8.85;;;5.30;;
43801;SDS011;29429;51.074;13.764;2023-11-21T11:15:50;12.52;;;5.88;;
43801;SDS011;29429;51.074;13.764;2023-11-21T11:18:30;10.65;;;4.78;;
43801;SDS011;29429;51.074;13.764;2023-11-21T11:24:15;7.03;;;4.75;;
43801;SDS011;29429;51.074;13.764;2023-11-21T11:33:10;8.02;;;4.80;;
43801;SDS011;29429;51.074;13.764;2023-11-21T11:36:06;8.93;;;5.68;;
43801;SDS011;29429;51.074;13.764;2023-11-21T11:39:00;9.38;;;5.63;;
43801;SDS011;29429;51.074;13.764;2023-11-21T11:41:30;9.32;;;5.60;;
43801;SDS011;29429;51.074;13.764;2023-11-21T11:44:01;7.88;;;4.85;;
43801;SDS011;29429;51.074;13.764;2023-11-21T11:46:41;7.88;;;5.50;;
43801;SDS011;29429;51.074;13.764;2023-11-21T11:49:24;7.95;;;5.30;;
43801;SDS011;29429;51.074;13.764;2023-11-21T11:55:01;8.60;;;5.80;;
43801;SDS011;29429;51.074;13.764;2023-11-21T11:57:30;9.75;;;5.80;;
43801;SDS011;29429;51.074;13.764;2023-11-21T12:02:44;10.07;;;5.82;;
43801;SDS011;29429;51.074;13.764;2023-11-21T12:05:15;11.23;;;5.80;;
43801;SDS011;29429;51.074;13.764;2023-11-21T12:07:57;10.05;;;6.05;;
43801;SDS011;29429;51.074;13.764;2023-11-21T12:10:28;8.77;;;5.70;;
43801;SDS011;29429;51.074;13.764;2023-11-21T12:13:05;8.77;;;5.45;;
43801;SDS011;29429;51.074;13.764;2023-11-21T12:15:34;9.32;;;5.68;;
43801;SDS011;29429;51.074;13.764;2023-11-21T12:18:03;9.40;;;5.63;;
43801;SDS011;29429;51.074;13.764;2023-11-21T12:20:32;9.82;;;5.72;;
43801;SDS011;29429;51.074;13.764;2023-11-21T12:23:05;9.82;;;6.13;;
43801;SDS011;29429;51.074;13.764;2023-11-21T12:25:32;10.73;;;6.28;;
43801;SDS011;29429;51.074;13.764;2023-11-21T12:28:00;10.40;;;6.05;;
43801;SDS011;29429;51.074;13.764;2023-11-21T12:30:30;11.00;;;6.57;;
43801;SDS011;29429;51.074;13.764;2023-11-21T12:33:01;11.27;;;6.80;;
43801;SDS011;29429;51.074;13.764;2023-11-21T12:35:31;10.05;;;6.72;;
43801;SDS011;29429;51.074;13.764;2023-11-21T12:38:01;14.15;;;7.97;;
43801;SDS011;29429;51.074;13.764;2023-11-21T12:40:31;11.13;;;7.63;;
43801;SDS011;29429;51.074;13.764;2023-11-21T12:42:58;11.80;;;7.55;;
43801;SDS011;29429;51.074;13.764;2023-11-21T12:45:28;11.93;;;8.30;;
43801;SDS011;29429;51.074;13.764;2023-11-21T12:47:59;10.60;;;7.28;;
43801;SDS011;29429;51.074;13.764;2023-11-21T12:50:30;12.13;;;7.53;;
43801;SDS011;29429;51.074;13.764;2023-11-21T12:55:30;14.48;;;8.13;;
43801;SDS011;29429;51.074;13.764;2023-11-21T12:58:01;13.80;;;7.90;;
43801;SDS011;29429;51.074;13.764;2023-11-21T13:00:40;12.85;;;8.35;;
43801;SDS011;29429;51.074;13.764;2023-11-21T13:03:12;15.48;;;9.55;;
43801;SDS011;29429;51.074;13.764;2023-11-21T13:05:48;14.82;;;9.23;;
43801;SDS011;29429;51.074;13.764;2023-11-21T13:08:21;15.77;;;9.13;;
43801;SDS011;29429;51.074;13.764;2023-11-21T13:10:55;18.30;;;10.93;;
43801;SDS011;29429;51.074;13.764;2023-11-21T13:13:24;16.08;;;10.40;;
43801;SDS011;29429;51.074;13.764;2023-11-21T13:15:56;16.67;;;10.73;;
43801;SDS011;29429;51.074;13.764;2023-11-21T13:20:58;16.30;;;10.30;;
43801;SDS011;29429;51.074;13.764;2023-11-21T13:23:41;15.18;;;10.02;;
43801;SDS011;29429;51.074;13.764;2023-11-21T13:26:09;16.00;;;10.48;;
43801;SDS011;29429;51.074;13.764;2023-11-21T13:28:36;17.33;;;10.65;;
43801;SDS011;29429;51.074;13.764;2023-11-21T13:31:05;19.58;;;10.52;;
43801;SDS011;29429;51.074;13.764;2023-11-21T13:33:37;21.95;;;11.50;;
43801;SDS011;29429;51.074;13.764;2023-11-21T13:36:07;17.92;;;10.77;;
43801;SDS011;29429;51.074;13.764;2023-11-21T13:38:37;15.57;;;9.65;;
43801;SDS011;29429;51.074;13.764;2023-11-21T13:41:09;22.75;;;11.55;;
43801;SDS011;29429;51.074;13.764;2023-11-21T13:43:36;20.35;;;11.02;;
43801;SDS011;29429;51.074;13.764;2023-11-21T13:46:04;22.50;;;11.20;;
43801;SDS011;29429;51.074;13.764;2023-11-21T13:48:43;22.92;;;11.80;;
43801;SDS011;29429;51.074;13.764;2023-11-21T13:51:17;25.63;;;12.00;;
43801;SDS011;29429;51.074;13.764;2023-11-21T13:53:45;22.35;;;11.52;;
43801;SDS011;29429;51.074;13.764;2023-11-21T13:56:18;24.98;;;11.65;;
43801;SDS011;29429;51.074;13.764;2023-11-21T13:58:51;19.90;;;10.60;;
43801;SDS011;29429;51.074;13.764;2023-11-21T14:01:23;22.88;;;11.35;;
43801;SDS011;29429;51.074;13.764;2023-11-21T14:03:59;19.10;;;9.98;;
43801;SDS011;29429;51.074;13.764;2023-11-21T14:06:46;17.25;;;9.38;;
43801;SDS011;29429;51.074;13.764;2023-11-21T14:09:16;18.80;;;8.88;;
43801;SDS011;29429;51.074;13.764;2023-11-21T14:11:54;16.67;;;9.50;;
43801;SDS011;29429;51.074;13.764;2023-11-21T14:14:24;15.85;;;8.65;;
43801;SDS011;29429;51.074;13.764;2023-11-21T14:16:56;16.45;;;8.65;;
43801;SDS011;29429;51.074;13.764;2023-11-21T14:19:25;21.75;;;10.15;;
43801;SDS011;29429;51.074;13.764;2023-11-21T14:21:57;19.02;;;9.70;;
43801;SDS011;29429;51.074;13.764;2023-11-21T14:24:25;18.30;;;9.80;;
43801;SDS011;29429;51.074;13.764;2023-11-21T14:26:52;21.98;;;11.25;;
43801;SDS011;29429;51.074;13.764;2023-11-21T14:29:19;23.38;;;12.35;;
43801;SDS011;29429;51.074;13.764;2023-11-21T14:31:47;22.88;;;10.88;;
43801;SDS011;29429;51.074;13.764;2023-11-21T14:34:15;25.25;;;11.25;;
43801;SDS011;29429;51.074;13.764;2023-11-21T14:36:46;22.05;;;10.50;;
43801;SDS011;29429;51.074;13.764;2023-11-21T14:39:15;17.30;;;9.95;;
43801;SDS011;29429;51.074;13.764;2023-11-21T14:41:55;16.15;;;9.10;;
43801;SDS011;29429;51.074;13.764;2023-11-21T14:44:24;19.25;;;9.82;;
43801;SDS011;29429;51.074;13.764;2023-11-21T14:46:54;17.02;;;9.32;;
43801;SDS011;29429;51.074;13.764;2023-11-21T14:49:24;19.90;;;10.57;;
43801;SDS011;29429;51.074;13.764;2023-11-21T14:51:55;15.77;;;8.60;;
43801;SDS011;29429;51.074;13.764;2023-11-21T14:54:22;13.75;;;7.78;;
43801;SDS011;29429;51.074;13.764;2023-11-21T14:57:09;13.63;;;7.68;;
43801;SDS011;29429;51.074;13.764;2023-11-21T14:59:43;14.90;;;7.93;;
43801;SDS011;29429;51.074;13.764;2023-11-21T15:02:15;10.88;;;6.85;;
43801;SDS011;29429;51.074;13.764;2023-11-21T15:04:44;13.15;;;6.90;;